sensor_id;sensor_type;location;lat;lon;timestamp;temperature;humidity
21950;DHT22;11139;51.284;7.226;2022-12-29T00:02:10;7.50;99.90
21950;DHT22;11139;51.284;7.226;2022-12-29T00:04:36;7.50;99.90
21950;DHT22;11139;51.284;7.226;2022-12-29T00:07:01;7.50;99.90
21950;DHT22;11139;51.284;7.226;2022-12-29T00:09:30;7.50;99.90
21950;DHT22;11139;51.284;7.226;2022-12-29T00:11:55;7.50;99.90
21950;DHT22;11139;51.284;7.226;2022-12-29T00:14:21;7.50;99.90
21950;DHT22;11139;51.284;7.226;2022-12-29T00:17:05;7.50;99.90
21950;DHT22;11139;51.284;7.226;2022-12-29T00:19:31;7.60;99.90
21950;DHT22;11139;51.284;7.226;2022-12-29T00:22:15;7.50;99.90
21950;DHT22;11139;51.284;7.226;2022-12-29T00:24:59;7.50;99.90
21950;DHT22;11139;51.284;7.226;2022-12-29T00:27:28;7.50;99.90
21950;DHT22;11139;51.284;7.226;2022-12-29T00:30:13;7.60;99.90
21950;DHT22;11139;51.284;7.226;2022-12-29T00:32:57;7.60;99.90
21950;DHT22;11139;51.284;7.226;2022-12-29T00:35:45;7.60;99.90
21950;DHT22;11139;51.284;7.226;2022-12-29T00:38:12;7.60;99.90
21950;DHT22;11139;51.284;7.226;2022-12-29T00:40:56;7.60;99.90
21950;DHT22;11139;51.284;7.226;2022-12-29T00:43:41;7.60;99.90
21950;DHT22;11139;51.284;7.226;2022-12-29T00:46:25;7.60;99.90
21950;DHT22;11139;51.284;7.226;2022-12-29T00:48:52;7.60;99.90
21950;DHT22;11139;51.284;7.226;2022-12-29T00:51:37;7.60;99.90
21950;DHT22;11139;51.284;7.226;2022-12-29T00:54:02;7.60;99.90
21950;DHT22;11139;51.284;7.226;2022-12-29T00:56:28;7.60;99.90
21950;DHT22;11139;51.284;7.226;2022-12-29T00:58:53;7.60;99.90
21950;DHT22;11139;51.284;7.226;2022-12-29T01:01:19;7.60;99.90
21950;DHT22;11139;51.284;7.226;2022-12-29T01:03:44;7.60;99.90
21950;DHT22;11139;51.284;7.226;2022-12-29T01:06:10;7.60;99.90
21950;DHT22;11139;51.284;7.226;2022-12-29T01:08:36;7.60;99.90
21950;DHT22;11139;51.284;7.226;2022-12-29T01:11:06;7.60;99.90
21950;DHT22;11139;51.284;7.226;2022-12-29T01:13:32;7.70;99.90
21950;DHT22;11139;51.284;7.226;2022-12-29T01:15:57;7.70;99.90
21950;DHT22;11139;51.284;7.226;2022-12-29T01:18:23;7.70;99.90
21950;DHT22;11139;51.284;7.226;2022-12-29T01:20:49;7.70;99.90
21950;DHT22;11139;51.284;7.226;2022-12-29T01:23:15;7.70;99.90
21950;DHT22;11139;51.284;7.226;2022-12-29T01:25:40;7.70;99.90
21950;DHT22;11139;51.284;7.226;2022-12-29T01:28:06;7.70;99.90
21950;DHT22;11139;51.284;7.226;2022-12-29T01:30:33;7.70;99.90
21950;DHT22;11139;51.284;7.226;2022-12-29T01:32:59;7.70;99.90
21950;DHT22;11139;51.284;7.226;2022-12-29T01:35:24;7.70;99.90
21950;DHT22;11139;51.284;7.226;2022-12-29T01:37:50;7.70;99.90
21950;DHT22;11139;51.284;7.226;2022-12-29T01:40:15;7.70;99.90
21950;DHT22;11139;51.284;7.226;2022-12-29T01:42:41;7.70;99.90
21950;DHT22;11139;51.284;7.226;2022-12-29T01:47:38;7.70;99.90
21950;DHT22;11139;51.284;7.226;2022-12-29T01:50:09;7.80;99.90
21950;DHT22;11139;51.284;7.226;2022-12-29T01:52:38;7.70;99.90
21950;DHT22;11139;51.284;7.226;2022-12-29T01:55:06;7.80;99.90
21950;DHT22;11139;51.284;7.226;2022-12-29T01:57:33;7.80;99.90
21950;DHT22;11139;51.284;7.226;2022-12-29T02:00:04;7.80;99.90
21950;DHT22;11139;51.284;7.226;2022-12-29T02:02:30;7.80;99.90
21950;DHT22;11139;51.284;7.226;2022-12-29T02:04:57;7.80;99.90
21950;DHT22;11139;51.284;7.226;2022-12-29T02:07:23;7.80;99.90
21950;DHT22;11139;51.284;7.226;2022-12-29T02:09:50;7.80;99.90
21950;DHT22;11139;51.284;7.226;2022-12-29T02:12:16;7.80;99.90
21950;DHT22;11139;51.284;7.226;2022-12-29T02:14:43;7.80;99.90
21950;DHT22;11139;51.284;7.226;2022-12-29T02:37:23;7.80;99.90
21950;DHT22;11139;51.284;7.226;2022-12-29T02:39:52;7.90;99.90
21950;DHT22;11139;51.284;7.226;2022-12-29T02:47:11;7.90;99.90
21950;DHT22;11139;51.284;7.226;2022-12-29T02:49:42;7.90;99.90
21950;DHT22;11139;51.284;7.226;2022-12-29T02:52:11;7.90;99.90
21950;DHT22;11139;51.284;7.226;2022-12-29T02:54:40;7.90;99.90
21950;DHT22;11139;51.284;7.226;2022-12-29T02:59:37;7.90;99.90
21950;DHT22;11139;51.284;7.226;2022-12-29T03:05:11;7.90;99.90
21950;DHT22;11139;51.284;7.226;2022-12-29T03:15:43;8.00;99.90
21950;DHT22;11139;51.284;7.226;2022-12-29T03:18:28;7.90;99.90
21950;DHT22;11139;51.284;7.226;2022-12-29T03:21:07;7.90;99.90
21950;DHT22;11139;51.284;7.226;2022-12-29T03:23:33;7.90;99.90
21950;DHT22;11139;51.284;7.226;2022-12-29T03:26:01;8.00;99.90
21950;DHT22;11139;51.284;7.226;2022-12-29T03:28:28;8.00;99.90
21950;DHT22;11139;51.284;7.226;2022-12-29T03:30:54;8.00;99.90
21950;DHT22;11139;51.284;7.226;2022-12-29T03:33:21;8.00;99.90
21950;DHT22;11139;51.284;7.226;2022-12-29T03:35:48;8.00;99.90
21950;DHT22;11139;51.284;7.226;2022-12-29T03:38:25;8.00;99.90
21950;DHT22;11139;51.284;7.226;2022-12-29T03:40:55;8.00;99.90
21950;DHT22;11139;51.284;7.226;2022-12-29T03:43:21;8.00;99.90
21950;DHT22;11139;51.284;7.226;2022-12-29T03:45:47;8.00;99.90
21950;DHT22;11139;51.284;7.226;2022-12-29T03:48:12;7.90;99.90
21950;DHT22;11139;51.284;7.226;2022-12-29T03:50:38;8.00;99.90
21950;DHT22;11139;51.284;7.226;2022-12-29T03:53:03;7.90;99.90
21950;DHT22;11139;51.284;7.226;2022-12-29T03:55:29;8.00;99.90
21950;DHT22;11139;51.284;7.226;2022-12-29T03:57:54;8.00;99.90
21950;DHT22;11139;51.284;7.226;2022-12-29T04:00:20;8.00;99.90
21950;DHT22;11139;51.284;7.226;2022-12-29T04:02:46;8.00;99.90
21950;DHT22;11139;51.284;7.226;2022-12-29T04:05:12;8.00;99.90
21950;DHT22;11139;51.284;7.226;2022-12-29T04:07:37;8.00;99.90
21950;DHT22;11139;51.284;7.226;2022-12-29T04:10:03;8.00;99.90
21950;DHT22;11139;51.284;7.226;2022-12-29T04:12:28;8.00;99.90
21950;DHT22;11139;51.284;7.226;2022-12-29T04:14:54;8.00;99.90
21950;DHT22;11139;51.284;7.226;2022-12-29T04:17:19;8.00;99.90
21950;DHT22;11139;51.284;7.226;2022-12-29T04:19:45;8.00;99.90
21950;DHT22;11139;51.284;7.226;2022-12-29T04:22:10;8.00;99.90
21950;DHT22;11139;51.284;7.226;2022-12-29T04:24:36;8.00;99.90
21950;DHT22;11139;51.284;7.226;2022-12-29T04:27:02;8.00;99.90
21950;DHT22;11139;51.284;7.226;2022-12-29T04:29:27;8.00;99.90
21950;DHT22;11139;51.284;7.226;2022-12-29T04:31:53;8.00;99.90
21950;DHT22;11139;51.284;7.226;2022-12-29T04:34:19;8.00;99.90
21950;DHT22;11139;51.284;7.226;2022-12-29T04:36:44;8.00;99.90
21950;DHT22;11139;51.284;7.226;2022-12-29T04:39:10;8.00;99.90
21950;DHT22;11139;51.284;7.226;2022-12-29T04:41:38;8.00;99.90
21950;DHT22;11139;51.284;7.226;2022-12-29T04:44:03;8.10;99.90
21950;DHT22;11139;51.284;7.226;2022-12-29T04:46:29;8.10;99.90
21950;DHT22;11139;51.284;7.226;2022-12-29T04:48:54;8.10;99.90
21950;DHT22;11139;51.284;7.226;2022-12-29T04:51:20;8.10;99.90
21950;DHT22;11139;51.284;7.226;2022-12-29T04:53:45;8.10;99.90
21950;DHT22;11139;51.284;7.226;2022-12-29T04:56:11;8.10;99.90
21950;DHT22;11139;51.284;7.226;2022-12-29T04:58:36;8.10;99.90
21950;DHT22;11139;51.284;7.226;2022-12-29T05:01:02;8.10;99.90
21950;DHT22;11139;51.284;7.226;2022-12-29T05:03:27;8.10;99.90
21950;DHT22;11139;51.284;7.226;2022-12-29T05:05:54;8.10;99.90
21950;DHT22;11139;51.284;7.226;2022-12-29T05:08:20;8.10;99.90
21950;DHT22;11139;51.284;7.226;2022-12-29T05:10:45;8.10;99.90
21950;DHT22;11139;51.284;7.226;2022-12-29T05:13:11;8.10;99.90
21950;DHT22;11139;51.284;7.226;2022-12-29T05:15:36;8.10;99.90
21950;DHT22;11139;51.284;7.226;2022-12-29T05:18:05;8.10;99.90
21950;DHT22;11139;51.284;7.226;2022-12-29T05:20:30;8.20;99.90
21950;DHT22;11139;51.284;7.226;2022-12-29T05:22:56;8.20;99.90
21950;DHT22;11139;51.284;7.226;2022-12-29T05:25:21;8.20;99.90
21950;DHT22;11139;51.284;7.226;2022-12-29T05:27:46;8.20;99.90
21950;DHT22;11139;51.284;7.226;2022-12-29T05:30:12;8.20;99.90
21950;DHT22;11139;51.284;7.226;2022-12-29T05:32:38;8.20;99.90
21950;DHT22;11139;51.284;7.226;2022-12-29T05:35:03;8.20;99.90
21950;DHT22;11139;51.284;7.226;2022-12-29T05:37:29;8.20;99.90
21950;DHT22;11139;51.284;7.226;2022-12-29T05:39:54;8.20;99.90
21950;DHT22;11139;51.284;7.226;2022-12-29T05:42:20;8.20;99.90
21950;DHT22;11139;51.284;7.226;2022-12-29T05:44:46;8.20;99.90
21950;DHT22;11139;51.284;7.226;2022-12-29T05:47:11;8.20;99.90
21950;DHT22;11139;51.284;7.226;2022-12-29T05:49:37;8.20;99.90
21950;DHT22;11139;51.284;7.226;2022-12-29T05:52:02;8.20;99.90
21950;DHT22;11139;51.284;7.226;2022-12-29T05:54:28;8.20;99.90
21950;DHT22;11139;51.284;7.226;2022-12-29T05:56:53;8.20;99.90
21950;DHT22;11139;51.284;7.226;2022-12-29T05:59:19;8.20;99.90
21950;DHT22;11139;51.284;7.226;2022-12-29T06:01:44;8.30;99.90
21950;DHT22;11139;51.284;7.226;2022-12-29T06:04:10;8.20;99.90
21950;DHT22;11139;51.284;7.226;2022-12-29T06:06:35;8.20;99.90
21950;DHT22;11139;51.284;7.226;2022-12-29T06:09:01;8.20;99.90
21950;DHT22;11139;51.284;7.226;2022-12-29T06:11:26;8.30;99.90
21950;DHT22;11139;51.284;7.226;2022-12-29T06:13:52;8.20;99.90
21950;DHT22;11139;51.284;7.226;2022-12-29T06:16:17;8.20;99.90
21950;DHT22;11139;51.284;7.226;2022-12-29T06:18:43;8.30;99.90
21950;DHT22;11139;51.284;7.226;2022-12-29T06:21:08;8.30;99.90
21950;DHT22;11139;51.284;7.226;2022-12-29T06:23:34;8.30;99.90
21950;DHT22;11139;51.284;7.226;2022-12-29T06:25:59;8.30;99.90
21950;DHT22;11139;51.284;7.226;2022-12-29T06:28:25;8.30;99.90
21950;DHT22;11139;51.284;7.226;2022-12-29T06:30:50;8.30;99.90
21950;DHT22;11139;51.284;7.226;2022-12-29T06:33:16;8.30;99.90
21950;DHT22;11139;51.284;7.226;2022-12-29T06:35:42;8.30;99.90
21950;DHT22;11139;51.284;7.226;2022-12-29T06:38:07;8.30;99.90
21950;DHT22;11139;51.284;7.226;2022-12-29T06:40:33;8.30;99.90
21950;DHT22;11139;51.284;7.226;2022-12-29T06:42:58;8.30;99.90
21950;DHT22;11139;51.284;7.226;2022-12-29T06:45:24;8.30;99.90
21950;DHT22;11139;51.284;7.226;2022-12-29T06:47:49;8.30;99.90
21950;DHT22;11139;51.284;7.226;2022-12-29T06:50:15;8.30;99.90
21950;DHT22;11139;51.284;7.226;2022-12-29T06:52:40;8.30;99.90
21950;DHT22;11139;51.284;7.226;2022-12-29T06:55:06;8.30;99.90
21950;DHT22;11139;51.284;7.226;2022-12-29T06:57:31;8.30;99.90
21950;DHT22;11139;51.284;7.226;2022-12-29T06:59:57;8.30;99.90
21950;DHT22;11139;51.284;7.226;2022-12-29T07:02:22;8.30;99.90
21950;DHT22;11139;51.284;7.226;2022-12-29T07:04:51;8.30;99.90
21950;DHT22;11139;51.284;7.226;2022-12-29T07:07:17;8.40;99.90
21950;DHT22;11139;51.284;7.226;2022-12-29T07:09:43;8.30;99.90
21950;DHT22;11139;51.284;7.226;2022-12-29T07:12:09;8.30;99.90
21950;DHT22;11139;51.284;7.226;2022-12-29T07:14:34;8.40;99.90
21950;DHT22;11139;51.284;7.226;2022-12-29T07:17:00;8.30;99.90
21950;DHT22;11139;51.284;7.226;2022-12-29T07:19:26;8.30;99.90
21950;DHT22;11139;51.284;7.226;2022-12-29T07:21:53;8.30;99.90
21950;DHT22;11139;51.284;7.226;2022-12-29T07:24:19;8.40;99.90
21950;DHT22;11139;51.284;7.226;2022-12-29T07:26:44;8.30;99.90
21950;DHT22;11139;51.284;7.226;2022-12-29T07:29:10;8.30;99.90
21950;DHT22;11139;51.284;7.226;2022-12-29T07:31:35;8.30;99.90
21950;DHT22;11139;51.284;7.226;2022-12-29T07:34:01;8.30;99.90
21950;DHT22;11139;51.284;7.226;2022-12-29T07:36:26;8.30;99.90
21950;DHT22;11139;51.284;7.226;2022-12-29T07:38:52;8.40;99.90
21950;DHT22;11139;51.284;7.226;2022-12-29T07:41:17;8.40;99.90
21950;DHT22;11139;51.284;7.226;2022-12-29T07:43:46;8.40;99.90
21950;DHT22;11139;51.284;7.226;2022-12-29T07:46:11;8.30;99.90
21950;DHT22;11139;51.284;7.226;2022-12-29T07:48:37;8.30;99.90
21950;DHT22;11139;51.284;7.226;2022-12-29T07:51:02;8.30;99.90
21950;DHT22;11139;51.284;7.226;2022-12-29T07:53:28;8.40;99.90
21950;DHT22;11139;51.284;7.226;2022-12-29T07:55:53;8.40;99.90
21950;DHT22;11139;51.284;7.226;2022-12-29T07:58:19;8.30;99.90
21950;DHT22;11139;51.284;7.226;2022-12-29T08:00:44;8.40;99.90
21950;DHT22;11139;51.284;7.226;2022-12-29T08:03:10;8.40;99.90
21950;DHT22;11139;51.284;7.226;2022-12-29T08:05:35;8.40;99.90
21950;DHT22;11139;51.284;7.226;2022-12-29T08:08:01;8.40;99.90
21950;DHT22;11139;51.284;7.226;2022-12-29T08:10:26;8.40;99.90
21950;DHT22;11139;51.284;7.226;2022-12-29T08:12:52;8.40;99.90
21950;DHT22;11139;51.284;7.226;2022-12-29T08:15:17;8.40;99.90
21950;DHT22;11139;51.284;7.226;2022-12-29T08:17:43;8.40;99.90
21950;DHT22;11139;51.284;7.226;2022-12-29T08:20:08;8.40;99.90
21950;DHT22;11139;51.284;7.226;2022-12-29T08:22:34;8.40;99.90
21950;DHT22;11139;51.284;7.226;2022-12-29T08:24:59;8.40;99.90
21950;DHT22;11139;51.284;7.226;2022-12-29T08:27:25;8.40;99.90
21950;DHT22;11139;51.284;7.226;2022-12-29T08:29:51;8.40;99.90
21950;DHT22;11139;51.284;7.226;2022-12-29T08:32:16;8.40;99.90
21950;DHT22;11139;51.284;7.226;2022-12-29T08:34:42;8.40;99.90
21950;DHT22;11139;51.284;7.226;2022-12-29T08:37:07;8.40;99.90
21950;DHT22;11139;51.284;7.226;2022-12-29T08:39:33;8.40;99.90
21950;DHT22;11139;51.284;7.226;2022-12-29T08:41:59;8.40;99.90
21950;DHT22;11139;51.284;7.226;2022-12-29T08:44:24;8.40;99.90
21950;DHT22;11139;51.284;7.226;2022-12-29T08:46:49;8.40;99.90
21950;DHT22;11139;51.284;7.226;2022-12-29T08:49:15;8.40;99.90
21950;DHT22;11139;51.284;7.226;2022-12-29T08:51:40;8.40;99.90
21950;DHT22;11139;51.284;7.226;2022-12-29T08:54:06;8.40;99.90
21950;DHT22;11139;51.284;7.226;2022-12-29T08:56:31;8.40;99.90
21950;DHT22;11139;51.284;7.226;2022-12-29T08:58:57;8.40;99.90
21950;DHT22;11139;51.284;7.226;2022-12-29T09:01:22;8.40;99.90
21950;DHT22;11139;51.284;7.226;2022-12-29T09:03:48;8.40;99.90
21950;DHT22;11139;51.284;7.226;2022-12-29T09:06:15;8.40;99.90
21950;DHT22;11139;51.284;7.226;2022-12-29T09:08:42;8.40;99.90
21950;DHT22;11139;51.284;7.226;2022-12-29T09:11:12;8.40;99.90
21950;DHT22;11139;51.284;7.226;2022-12-29T09:13:38;8.40;99.90
21950;DHT22;11139;51.284;7.226;2022-12-29T09:16:04;8.40;99.90
21950;DHT22;11139;51.284;7.226;2022-12-29T09:18:29;8.40;99.90
21950;DHT22;11139;51.284;7.226;2022-12-29T09:21:03;8.40;99.90
21950;DHT22;11139;51.284;7.226;2022-12-29T09:23:28;8.40;99.90
21950;DHT22;11139;51.284;7.226;2022-12-29T09:25:54;8.40;99.90
21950;DHT22;11139;51.284;7.226;2022-12-29T09:28:20;8.40;99.90
21950;DHT22;11139;51.284;7.226;2022-12-29T09:30:45;8.40;99.90
21950;DHT22;11139;51.284;7.226;2022-12-29T09:33:11;8.40;99.90
21950;DHT22;11139;51.284;7.226;2022-12-29T09:35:37;8.40;99.90
21950;DHT22;11139;51.284;7.226;2022-12-29T09:38:02;8.40;99.90
21950;DHT22;11139;51.284;7.226;2022-12-29T09:45:43;8.40;99.90
21950;DHT22;11139;51.284;7.226;2022-12-29T09:48:13;8.40;99.90
21950;DHT22;11139;51.284;7.226;2022-12-29T09:50:39;8.40;99.90
21950;DHT22;11139;51.284;7.226;2022-12-29T09:55:41;8.40;99.90
21950;DHT22;11139;51.284;7.226;2022-12-29T10:00:56;8.40;99.90
21950;DHT22;11139;51.284;7.226;2022-12-29T10:03:24;8.40;99.90
21950;DHT22;11139;51.284;7.226;2022-12-29T10:11:17;8.40;99.90
21950;DHT22;11139;51.284;7.226;2022-12-29T10:16:24;8.40;99.90
21950;DHT22;11139;51.284;7.226;2022-12-29T10:21:33;8.60;99.90
21950;DHT22;11139;51.284;7.226;2022-12-29T10:24:03;8.70;99.90
21950;DHT22;11139;51.284;7.226;2022-12-29T10:26:33;8.60;99.90
21950;DHT22;11139;51.284;7.226;2022-12-29T10:31:43;8.60;99.90
21950;DHT22;11139;51.284;7.226;2022-12-29T10:34:20;8.60;99.90
21950;DHT22;11139;51.284;7.226;2022-12-29T10:36:48;8.60;99.90
21950;DHT22;11139;51.284;7.226;2022-12-29T10:39:26;8.60;99.90
21950;DHT22;11139;51.284;7.226;2022-12-29T10:41:56;8.60;99.90
21950;DHT22;11139;51.284;7.226;2022-12-29T10:44:24;8.60;99.90
21950;DHT22;11139;51.284;7.226;2022-12-29T10:46:56;8.60;99.90
21950;DHT22;11139;51.284;7.226;2022-12-29T10:49:22;8.60;99.90
21950;DHT22;11139;51.284;7.226;2022-12-29T10:51:50;8.60;99.90
21950;DHT22;11139;51.284;7.226;2022-12-29T10:56:43;8.60;99.90
21950;DHT22;11139;51.284;7.226;2022-12-29T10:59:19;8.70;99.90
21950;DHT22;11139;51.284;7.226;2022-12-29T11:02:35;8.70;99.90
21950;DHT22;11139;51.284;7.226;2022-12-29T11:04:43;8.70;99.90
21950;DHT22;11139;51.284;7.226;2022-12-29T11:07:12;8.70;99.90
21950;DHT22;11139;51.284;7.226;2022-12-29T11:09:40;8.70;99.90
21950;DHT22;11139;51.284;7.226;2022-12-29T11:17:53;8.70;99.90
21950;DHT22;11139;51.284;7.226;2022-12-29T11:22:53;8.70;99.90
21950;DHT22;11139;51.284;7.226;2022-12-29T11:25:19;8.70;99.90
21950;DHT22;11139;51.284;7.226;2022-12-29T11:28:01;8.70;99.90
21950;DHT22;11139;51.284;7.226;2022-12-29T11:30:28;8.70;99.90
21950;DHT22;11139;51.284;7.226;2022-12-29T11:32:54;8.70;99.90
21950;DHT22;11139;51.284;7.226;2022-12-29T11:35:40;8.70;99.90
21950;DHT22;11139;51.284;7.226;2022-12-29T11:38:06;8.70;99.90
21950;DHT22;11139;51.284;7.226;2022-12-29T11:40:41;8.70;99.90
21950;DHT22;11139;51.284;7.226;2022-12-29T11:43:06;8.70;99.90
21950;DHT22;11139;51.284;7.226;2022-12-29T11:45:41;8.70;99.90
21950;DHT22;11139;51.284;7.226;2022-12-29T11:48:17;8.70;99.90
21950;DHT22;11139;51.284;7.226;2022-12-29T11:50:48;8.70;99.90
21950;DHT22;11139;51.284;7.226;2022-12-29T11:55:40;8.80;99.90
21950;DHT22;11139;51.284;7.226;2022-12-29T11:58:15;8.90;99.90
21950;DHT22;11139;51.284;7.226;2022-12-29T12:00:41;9.00;99.90
21950;DHT22;11139;51.284;7.226;2022-12-29T12:03:14;9.00;99.90
21950;DHT22;11139;51.284;7.226;2022-12-29T12:05:44;9.00;99.90
21950;DHT22;11139;51.284;7.226;2022-12-29T12:11:15;9.00;99.90
21950;DHT22;11139;51.284;7.226;2022-12-29T12:13:49;9.00;99.90
21950;DHT22;11139;51.284;7.226;2022-12-29T12:16:21;9.00;99.90
21950;DHT22;11139;51.284;7.226;2022-12-29T12:18:48;9.00;99.90
21950;DHT22;11139;51.284;7.226;2022-12-29T12:21:18;9.00;99.90
21950;DHT22;11139;51.284;7.226;2022-12-29T12:24:00;9.00;99.90
21950;DHT22;11139;51.284;7.226;2022-12-29T12:26:42;9.00;99.90
21950;DHT22;11139;51.284;7.226;2022-12-29T12:29:12;9.00;99.90
21950;DHT22;11139;51.284;7.226;2022-12-29T12:34:05;8.90;99.90
21950;DHT22;11139;51.284;7.226;2022-12-29T12:44:22;8.90;99.90
21950;DHT22;11139;51.284;7.226;2022-12-29T13:16:14;8.80;99.90
21950;DHT22;11139;51.284;7.226;2022-12-29T13:30:17;8.70;99.90
21950;DHT22;11139;51.284;7.226;2022-12-29T13:38:51;8.70;99.90
21950;DHT22;11139;51.284;7.226;2022-12-29T13:42:24;8.70;99.90
21950;DHT22;11139;51.284;7.226;2022-12-29T13:47:05;8.70;99.90
21950;DHT22;11139;51.284;7.226;2022-12-29T13:58:19;8.70;99.90
21950;DHT22;11139;51.284;7.226;2022-12-29T14:07:04;8.70;99.90
21950;DHT22;11139;51.284;7.226;2022-12-29T14:15:41;8.80;99.90
21950;DHT22;11139;51.284;7.226;2022-12-29T14:18:21;8.80;99.90
21950;DHT22;11139;51.284;7.226;2022-12-29T14:20:46;8.90;99.90
21950;DHT22;11139;51.284;7.226;2022-12-29T14:28:24;9.00;99.90
21950;DHT22;11139;51.284;7.226;2022-12-29T14:30:51;9.00;99.90
21950;DHT22;11139;51.284;7.226;2022-12-29T14:33:16;9.10;99.90
21950;DHT22;11139;51.284;7.226;2022-12-29T14:35:50;9.10;99.90
21950;DHT22;11139;51.284;7.226;2022-12-29T14:38:36;9.10;99.90
21950;DHT22;11139;51.284;7.226;2022-12-29T14:41:17;9.10;99.90
21950;DHT22;11139;51.284;7.226;2022-12-29T14:43:51;9.10;99.90
21950;DHT22;11139;51.284;7.226;2022-12-29T14:46:17;9.10;99.90
21950;DHT22;11139;51.284;7.226;2022-12-29T14:48:43;9.00;99.90
21950;DHT22;11139;51.284;7.226;2022-12-29T14:51:19;9.10;99.90
21950;DHT22;11139;51.284;7.226;2022-12-29T14:53:47;9.00;99.90
21950;DHT22;11139;51.284;7.226;2022-12-29T14:56:13;9.00;99.90
21950;DHT22;11139;51.284;7.226;2022-12-29T15:03:47;9.00;99.90
21950;DHT22;11139;51.284;7.226;2022-12-29T15:06:15;9.00;99.90
21950;DHT22;11139;51.284;7.226;2022-12-29T15:08:49;9.00;99.90
21950;DHT22;11139;51.284;7.226;2022-12-29T15:11:17;9.00;99.90
21950;DHT22;11139;51.284;7.226;2022-12-29T15:13:44;9.00;99.90
21950;DHT22;11139;51.284;7.226;2022-12-29T15:16:23;9.00;99.90
21950;DHT22;11139;51.284;7.226;2022-12-29T15:18:49;9.00;99.90
21950;DHT22;11139;51.284;7.226;2022-12-29T15:21:15;9.00;99.90
21950;DHT22;11139;51.284;7.226;2022-12-29T15:23:42;9.00;99.90
21950;DHT22;11139;51.284;7.226;2022-12-29T15:26:08;9.00;99.90
21950;DHT22;11139;51.284;7.226;2022-12-29T15:28:42;9.00;99.90
21950;DHT22;11139;51.284;7.226;2022-12-29T15:31:10;9.00;99.90
21950;DHT22;11139;51.284;7.226;2022-12-29T15:33:37;9.00;99.90
21950;DHT22;11139;51.284;7.226;2022-12-29T15:36:08;9.00;99.90
21950;DHT22;11139;51.284;7.226;2022-12-29T15:38:35;8.90;99.90
21950;DHT22;11139;51.284;7.226;2022-12-29T15:41:44;9.00;99.90
21950;DHT22;11139;51.284;7.226;2022-12-29T15:46:17;9.00;99.90
21950;DHT22;11139;51.284;7.226;2022-12-29T15:48:43;8.90;99.90
21950;DHT22;11139;51.284;7.226;2022-12-29T15:51:27;9.00;99.90
21950;DHT22;11139;51.284;7.226;2022-12-29T15:53:53;9.00;99.90
21950;DHT22;11139;51.284;7.226;2022-12-29T15:56:19;8.90;99.90
21950;DHT22;11139;51.284;7.226;2022-12-29T15:58:46;8.90;99.90
21950;DHT22;11139;51.284;7.226;2022-12-29T16:03:58;8.90;99.90
21950;DHT22;11139;51.284;7.226;2022-12-29T16:06:37;8.90;99.90
21950;DHT22;11139;51.284;7.226;2022-12-29T16:11:39;8.90;99.90
21950;DHT22;11139;51.284;7.226;2022-12-29T16:14:21;8.90;99.90
21950;DHT22;11139;51.284;7.226;2022-12-29T16:16:50;8.90;99.90
21950;DHT22;11139;51.284;7.226;2022-12-29T16:21:41;8.90;99.90
21950;DHT22;11139;51.284;7.226;2022-12-29T16:24:08;8.90;99.90
21950;DHT22;11139;51.284;7.226;2022-12-29T16:26:37;8.90;99.90
21950;DHT22;11139;51.284;7.226;2022-12-29T16:29:04;8.90;99.90
21950;DHT22;11139;51.284;7.226;2022-12-29T16:31:46;8.90;99.90
21950;DHT22;11139;51.284;7.226;2022-12-29T16:34:19;8.90;99.90
21950;DHT22;11139;51.284;7.226;2022-12-29T16:36:55;8.90;99.90
21950;DHT22;11139;51.284;7.226;2022-12-29T16:41:50;8.90;99.90
21950;DHT22;11139;51.284;7.226;2022-12-29T16:44:20;8.90;99.90
21950;DHT22;11139;51.284;7.226;2022-12-29T16:49:20;8.90;99.90
21950;DHT22;11139;51.284;7.226;2022-12-29T16:51:46;8.90;99.90
21950;DHT22;11139;51.284;7.226;2022-12-29T16:54:18;8.90;99.90
21950;DHT22;11139;51.284;7.226;2022-12-29T16:56:45;8.90;99.90
21950;DHT22;11139;51.284;7.226;2022-12-29T17:01:45;8.90;99.90
21950;DHT22;11139;51.284;7.226;2022-12-29T17:04:11;8.90;99.90
21950;DHT22;11139;51.284;7.226;2022-12-29T17:06:38;8.90;99.90
21950;DHT22;11139;51.284;7.226;2022-12-29T17:09:20;8.90;99.90
21950;DHT22;11139;51.284;7.226;2022-12-29T17:11:47;8.90;99.90
21950;DHT22;11139;51.284;7.226;2022-12-29T17:16:44;8.80;99.90
21950;DHT22;11139;51.284;7.226;2022-12-29T17:19:17;8.90;99.90
21950;DHT22;11139;51.284;7.226;2022-12-29T17:21:43;8.80;99.90
21950;DHT22;11139;51.284;7.226;2022-12-29T17:24:18;8.90;99.90
21950;DHT22;11139;51.284;7.226;2022-12-29T17:26:44;8.80;99.90
21950;DHT22;11139;51.284;7.226;2022-12-29T17:29:43;8.80;99.90
21950;DHT22;11139;51.284;7.226;2022-12-29T17:32:02;8.80;99.90
21950;DHT22;11139;51.284;7.226;2022-12-29T17:34:28;8.80;99.90
21950;DHT22;11139;51.284;7.226;2022-12-29T17:36:54;8.80;99.90
21950;DHT22;11139;51.284;7.226;2022-12-29T17:39:19;8.80;99.90
21950;DHT22;11139;51.284;7.226;2022-12-29T17:41:45;8.80;99.90
21950;DHT22;11139;51.284;7.226;2022-12-29T17:44:17;8.80;99.90
21950;DHT22;11139;51.284;7.226;2022-12-29T17:46:44;8.80;99.90
21950;DHT22;11139;51.284;7.226;2022-12-29T17:49:13;8.80;99.90
21950;DHT22;11139;51.284;7.226;2022-12-29T17:51:39;8.80;99.90
21950;DHT22;11139;51.284;7.226;2022-12-29T17:54:05;8.80;99.90
21950;DHT22;11139;51.284;7.226;2022-12-29T17:56:30;8.80;99.90
21950;DHT22;11139;51.284;7.226;2022-12-29T17:58:56;8.80;99.90
21950;DHT22;11139;51.284;7.226;2022-12-29T18:01:21;8.80;99.90
21950;DHT22;11139;51.284;7.226;2022-12-29T18:03:50;8.80;99.90
21950;DHT22;11139;51.284;7.226;2022-12-29T18:06:16;8.80;99.90
21950;DHT22;11139;51.284;7.226;2022-12-29T18:08:41;8.80;99.90
21950;DHT22;11139;51.284;7.226;2022-12-29T18:11:15;8.70;99.90
21950;DHT22;11139;51.284;7.226;2022-12-29T18:13:44;8.80;99.90
21950;DHT22;11139;51.284;7.226;2022-12-29T18:16:10;8.80;99.90
21950;DHT22;11139;51.284;7.226;2022-12-29T18:18:36;8.70;99.90
21950;DHT22;11139;51.284;7.226;2022-12-29T18:21:02;8.70;99.90
21950;DHT22;11139;51.284;7.226;2022-12-29T18:23:29;8.70;99.90
21950;DHT22;11139;51.284;7.226;2022-12-29T18:26:06;8.70;99.90
21950;DHT22;11139;51.284;7.226;2022-12-29T18:28:35;8.70;99.90
21950;DHT22;11139;51.284;7.226;2022-12-29T18:31:00;8.70;99.90
21950;DHT22;11139;51.284;7.226;2022-12-29T18:33:26;8.70;99.90
21950;DHT22;11139;51.284;7.226;2022-12-29T18:38:20;8.70;99.90
21950;DHT22;11139;51.284;7.226;2022-12-29T18:40:46;8.70;99.90
21950;DHT22;11139;51.284;7.226;2022-12-29T18:43:12;8.70;99.90
21950;DHT22;11139;51.284;7.226;2022-12-29T18:45:38;8.60;99.90
21950;DHT22;11139;51.284;7.226;2022-12-29T18:48:03;8.70;99.90
21950;DHT22;11139;51.284;7.226;2022-12-29T18:50:29;8.60;99.90
21950;DHT22;11139;51.284;7.226;2022-12-29T18:52:54;8.70;99.90
21950;DHT22;11139;51.284;7.226;2022-12-29T18:55:23;8.60;99.90
21950;DHT22;11139;51.284;7.226;2022-12-29T18:57:49;8.70;99.90
21950;DHT22;11139;51.284;7.226;2022-12-29T19:00:16;8.60;99.90
21950;DHT22;11139;51.284;7.226;2022-12-29T19:02:42;8.60;99.90
21950;DHT22;11139;51.284;7.226;2022-12-29T19:07:39;8.60;99.90
21950;DHT22;11139;51.284;7.226;2022-12-29T19:10:05;8.60;99.90